Time;durP1;ratioP1;P1;durP2;ratioP2;P2;SDS_P1;SDS_P2;PMS_P1;PMS_P2;Temp;Humidity;BMP_temperature;BMP_pressure;BME280_temperature;BME280_humidity;BME280_pressure;Samples;Min_cycle;Max_cycle;Signal;HPM_P1;HPM_P2
2021/05/31 00:01:09;;;;;;;19.80;5.90;;;384.70;2048.00;;;;;;5032015;28;20389;-79
2021/05/31 00:03:34;;;;;;;8.45;5.00;;;384.70;2048.00;;;;;;5016496;28;20021;-79
2021/05/31 00:06:00;;;;;;;8.73;5.05;;;384.50;2073.60;;;;;;5016255;28;20527;-79
2021/05/31 00:08:26;;;;;;;7.82;4.80;;;384.40;2073.60;;;;;;5016628;28;20013;-79
2021/05/31 00:10:52;;;;;;;10.45;5.63;;;384.40;2048.00;;;;;;5016591;28;20120;-80
2021/05/31 00:13:18;;;;;;;8.35;5.10;;;384.20;2073.60;;;;;;5016702;28;20055;-80
2021/05/31 00:15:45;;;;;;;8.20;4.47;;;359.30;2073.60;;;;;;5016955;28;20759;-79
2021/05/31 00:18:13;;;;;;;11.60;4.35;;;384.10;2048.00;;;;;;5031436;28;20028;-79
2021/05/31 00:20:39;;;;;;;6.78;4.28;;;384.10;2048.00;;;;;;5015896;28;20029;-79
2021/05/31 00:23:05;;;;;;;7.38;4.63;;;384.30;2022.40;;;;;;5016128;28;20479;-79
2021/05/31 00:25:30;;;;;;;10.40;4.82;;;384.30;2022.40;;;;;;5015987;28;20021;-79
2021/05/31 00:27:56;;;;;;;6.18;4.18;;;384.50;1996.80;;;;;;5016040;28;20021;-82
2021/05/31 00:30:23;;;;;;;10.23;5.25;;;384.50;1996.80;;;;;;5040821;28;20447;-80
2021/05/31 00:32:53;;;;;;;7.55;5.35;;;384.40;2022.40;;;;;;5015705;28;20041;-79
2021/05/31 00:35:20;;;;;;;9.02;5.93;;;384.40;2048.00;;;;;;5016388;28;20451;-79
2021/05/31 00:37:46;;;;;;;9.30;5.53;;;384.10;2073.60;;;;;;5015810;28;20034;-79
2021/05/31 00:40:12;;;;;;;9.02;5.22;;;384.00;2073.60;;;;;;5015765;28;20108;-79
2021/05/31 00:42:39;;;;;;;8.00;4.25;;;384.00;2099.20;;;;;;5015703;28;20487;-79
2021/05/31 00:45:06;;;;;;;6.38;4.65;;;384.00;2124.80;;;;;;5015918;28;20033;-80
2021/05/31 00:47:33;;;;;;;7.30;4.85;;;359.30;2124.80;;;;;;5038045;28;20079;-79
2021/05/31 00:49:58;;;;;;;9.13;5.15;;;384.00;2124.80;;;;;;5041031;28;20028;-79
2021/05/31 00:52:25;;;;;;;6.90;5.05;;;384.00;2150.40;;;;;;5015450;28;20029;-79
2021/05/31 00:54:51;;;;;;;7.95;4.47;;;384.00;2150.40;;;;;;5015424;28;20028;-79
2021/05/31 00:57:18;;;;;;;6.30;5.03;;;384.00;2150.40;;;;;;5015576;28;20080;-80
2021/05/31 00:59:44;;;;;;;7.07;4.60;;;384.00;2150.40;;;;;;5015523;28;20108;-80
2021/05/31 01:02:10;;;;;;;8.85;5.65;;;384.00;2150.40;;;;;;5015230;28;20029;-79
2021/05/31 01:04:35;;;;;;;7.85;5.55;;;384.00;2176.00;;;;;;5014441;28;20029;-80
2021/05/31 01:07:27;;;;;;;6.20;4.63;;;384.00;2176.00;;;;;;5033092;28;20026;-79
2021/05/31 01:10:03;;;;;;;14.48;6.75;;;384.00;2176.00;;;;;;5012735;28;20025;-79
2021/05/31 01:12:57;;;;;;;9.43;5.38;;;384.00;2176.00;;;;;;5015282;28;20023;-79
2021/05/31 01:15:38;;;;;;;8.13;6.00;;;384.00;2176.00;;;;;;5013737;28;20569;-80
2021/05/31 01:18:21;;;;;;;10.30;5.95;;;384.00;2176.00;;;;;;5031212;28;20022;-80
2021/05/31 01:20:52;;;;;;;9.05;5.38;;;384.00;2176.00;;;;;;5031822;28;20124;-79
2021/05/31 01:23:20;;;;;;;10.43;6.03;;;384.00;2176.00;;;;;;5030545;28;20391;-79
2021/05/31 01:26:11;;;;;;;14.32;6.15;;;384.00;2176.00;;;;;;5032489;28;20022;-79
2021/05/31 01:28:49;;;;;;;8.52;5.80;;;359.30;2176.00;;;;;;5012567;28;20044;-79
2021/05/31 01:31:17;;;;;;;8.13;5.30;;;384.00;2150.40;;;;;;5010943;28;20137;-80
2021/05/31 01:33:46;;;;;;;9.70;6.50;;;384.00;2150.40;;;;;;5014277;28;20026;-79
2021/05/31 01:36:12;;;;;;;12.75;6.78;;;384.00;2150.40;;;;;;5032316;28;20052;-80
2021/05/31 01:38:40;;;;;;;11.52;5.75;;;359.20;2150.40;;;;;;5014141;28;20075;-79
2021/05/31 01:41:09;;;;;;;11.48;6.97;;;359.30;2150.40;;;;;;5014533;28;20062;-80
2021/05/31 01:43:37;;;;;;;12.48;5.38;;;359.20;2150.40;;;;;;5012425;28;20483;-79
2021/05/31 01:46:03;;;;;;;12.30;6.22;;;359.30;2150.40;;;;;;5014695;28;20045;-78
2021/05/31 01:48:30;;;;;;;9.52;6.00;;;359.30;2150.40;;;;;;5014453;28;20068;-79
2021/05/31 01:50:58;;;;;;;7.93;5.93;;;384.30;2176.00;;;;;;5014874;28;20041;-79
2021/05/31 01:53:24;;;;;;;11.82;6.30;;;359.30;2176.00;;;;;;5031998;28;20060;-79
2021/05/31 01:55:51;;;;;;;8.95;6.13;;;359.30;2176.00;;;;;;5014524;28;20029;-79
2021/05/31 01:58:17;;;;;;;8.82;6.30;;;359.30;2150.40;;;;;;5031946;28;20037;-79
2021/05/31 02:00:43;;;;;;;10.05;6.50;;;384.00;2176.00;;;;;;5014307;28;20525;-79
2021/05/31 02:03:10;;;;;;;7.90;5.88;;;359.30;2150.40;;;;;;5014392;28;20152;-80
2021/05/31 02:05:36;;;;;;;11.05;6.78;;;359.20;2150.40;;;;;;5011995;28;20021;-79
2021/05/31 02:08:02;;;;;;;9.07;6.40;;;384.00;2150.40;;;;;;5032087;28;20036;-78
2021/05/31 02:10:28;;;;;;;8.52;6.55;;;384.00;2124.80;;;;;;5014304;28;20116;-81
2021/05/31 02:12:58;;;;;;;10.18;6.50;;;384.00;2124.80;;;;;;5014369;28;20411;-79
2021/05/31 02:15:48;;;;;;;9.93;6.78;;;384.10;2124.80;;;;;;5014392;28;20029;-79
2021/05/31 02:18:26;;;;;;;9.48;5.70;;;359.30;2124.80;;;;;;5039027;28;20033;-80
2021/05/31 02:20:56;;;;;;;9.52;6.40;;;359.30;2150.40;;;;;;5014667;28;20542;-80
2021/05/31 02:23:23;;;;;;;8.88;6.20;;;359.20;2150.40;;;;;;5014163;28;20026;-80
2021/05/31 02:25:50;;;;;;;7.13;5.82;;;359.10;2176.00;;;;;;5014458;28;20021;-81
2021/05/31 02:28:16;;;;;;;8.52;4.82;;;359.00;2176.00;;;;;;5012009;28;20072;-79
2021/05/31 02:30:42;;;;;;;7.25;5.20;;;358.90;2201.60;;;;;;5018534;28;20511;-82
2021/05/31 02:33:08;;;;;;;6.40;4.88;;;358.70;2201.60;;;;;;5018045;28;20033;-80
2021/05/31 02:35:38;;;;;;;6.85;5.20;;;358.60;2252.80;;;;;;5017860;28;20017;-79
2021/05/31 02:38:05;;;;;;;8.05;5.32;;;358.50;2252.80;;;;;;5018286;28;20034;-79
2021/05/31 02:40:32;;;;;;;7.93;4.75;;;358.40;2278.40;;;;;;5018216;28;20029;-80
2021/05/31 02:43:01;;;;;;;6.55;4.95;;;358.50;2252.80;;;;;;5017993;28;20025;-79
2021/05/31 02:45:28;;;;;;;7.82;4.60;;;358.60;2252.80;;;;;;5018306;28;20033;-80
2021/05/31 02:47:54;;;;;;;10.27;5.65;;;358.50;2278.40;;;;;;5018395;28;20036;-80
2021/05/31 02:50:20;;;;;;;7.78;5.40;;;333.70;2304.00;;;;;;5017998;28;20337;-78
2021/05/31 02:52:47;;;;;;;7.72;5.22;;;358.40;2304.00;;;;;;5018143;28;20450;-79
2021/05/31 02:55:18;;;;;;;8.82;5.60;;;358.40;2304.00;;;;;;5017654;28;20491;-79
2021/05/31 02:57:44;;;;;;;6.35;4.93;;;358.40;2304.00;;;;;;5017364;28;20057;-80
2021/05/31 03:00:13;;;;;;;9.40;5.20;;;358.40;2304.00;;;;;;5018015;28;20018;-80
2021/05/31 03:02:39;;;;;;;7.72;5.40;;;358.50;2278.40;;;;;;5014903;28;20033;-79
2021/05/31 03:05:06;;;;;;;7.60;5.53;;;358.70;2252.80;;;;;;5035347;28;20014;-79
2021/05/31 03:07:32;;;;;;;9.48;5.88;;;358.80;2252.80;;;;;;5017486;28;20032;-79
2021/05/31 03:09:58;;;;;;;9.52;5.18;;;358.40;2304.00;;;;;;5017977;28;20446;-79
2021/05/31 03:12:24;;;;;;;8.90;5.25;;;358.40;2304.00;;;;;;5017569;28;20039;-79
2021/05/31 03:14:51;;;;;;;7.05;5.10;;;358.60;2278.40;;;;;;5017854;28;20486;-79
2021/05/31 03:17:18;;;;;;;7.45;5.47;;;358.50;2304.00;;;;;;5017639;28;20029;-80
2021/05/31 03:19:44;;;;;;;10.90;7.47;;;358.70;2304.00;;;;;;5017231;28;20463;-81
2021/05/31 03:22:09;;;;;;;12.15;6.97;;;358.40;2329.60;;;;;;5017826;28;20039;-80
2021/05/31 03:24:35;;;;;;;9.70;6.65;;;358.70;2278.40;;;;;;5016988;28;20498;-79
2021/05/31 03:27:02;;;;;;;8.70;6.03;;;358.70;2304.00;;;;;;5035719;28;20032;-79
2021/05/31 03:29:28;;;;;;;8.20;5.82;;;358.70;2278.40;;;;;;5017509;28;20041;-79
2021/05/31 03:31:54;;;;;;;10.25;6.53;;;358.90;2278.40;;;;;;5035223;28;20030;-80
2021/05/31 03:34:20;;;;;;;8.15;6.40;;;358.90;2278.40;;;;;;5017218;28;20032;-79
2021/05/31 03:36:45;;;;;;;9.48;7.53;;;359.00;2252.80;;;;;;5025770;28;20021;-79
2021/05/31 03:39:11;;;;;;;8.88;6.47;;;359.00;2227.20;;;;;;5039634;28;20033;-79
2021/05/31 03:41:37;;;;;;;11.48;5.90;;;359.00;2227.20;;;;;;5039485;28;20091;-80
2021/05/31 03:44:03;;;;;;;8.82;5.63;;;359.00;2227.20;;;;;;5016539;28;20112;-81
2021/05/31 03:46:28;;;;;;;8.52;5.30;;;359.00;2227.20;;;;;;5016876;28;20091;-80
2021/05/31 03:48:54;;;;;;;7.55;5.85;;;358.90;2227.20;;;;;;5016845;28;20441;-79
2021/05/31 03:51:21;;;;;;;8.45;6.28;;;359.00;2227.20;;;;;;5015455;28;20034;-78
2021/05/31 03:53:47;;;;;;;13.88;6.35;;;358.90;2227.20;;;;;;5016774;28;20029;-79
2021/05/31 03:56:13;;;;;;;8.88;6.03;;;358.80;2252.80;;;;;;5034830;28;20029;-78
2021/05/31 03:58:41;;;;;;;7.60;5.50;;;358.90;2252.80;;;;;;5016341;28;20029;-79
2021/05/31 04:01:08;;;;;;;8.60;6.03;;;358.90;2252.80;;;;;;5016489;28;20025;-80
2021/05/31 04:03:35;;;;;;;8.75;5.95;;;358.90;2252.80;;;;;;5016775;28;20025;-79
2021/05/31 04:11:40;;;;;;;9.13;6.25;;;358.80;2278.40;;;;;;5033613;28;20438;-79
2021/05/31 04:14:11;;;;;;;8.27;5.70;;;358.90;2278.40;;;;;;5034425;28;20411;-79
2021/05/31 04:16:40;;;;;;;9.85;5.75;;;358.90;2278.40;;;;;;5033458;28;20033;-79
2021/05/31 04:19:07;;;;;;;9.88;5.53;;;358.80;2304.00;;;;;;5016587;28;20025;-79
2021/05/31 04:21:34;;;;;;;10.88;6.28;;;358.90;2278.40;;;;;;5015747;28;20116;-79
2021/05/31 04:24:01;;;;;;;6.20;4.93;;;359.00;2278.40;;;;;;5016223;28;20117;-79
2021/05/31 04:26:27;;;;;;;9.13;6.05;;;359.00;2304.00;;;;;;5016168;28;20026;-79
2021/05/31 04:28:53;;;;;;;7.07;5.20;;;359.00;2304.00;;;;;;5015242;28;20069;-79
2021/05/31 04:31:19;;;;;;;8.00;5.55;;;358.90;2329.60;;;;;;5015853;28;20102;-79
2021/05/31 04:33:45;;;;;;;12.32;5.43;;;359.00;2329.60;;;;;;5015536;28;20484;-79
2021/05/31 04:36:11;;;;;;;9.27;5.50;;;359.10;2304.00;;;;;;5016209;28;20032;-80
2021/05/31 04:38:38;;;;;;;6.45;5.20;;;359.00;2329.60;;;;;;5015504;28;20025;-79
2021/05/31 04:41:04;;;;;;;5.88;4.38;;;359.00;2329.60;;;;;;5015738;28;20033;-79
2021/05/31 04:43:31;;;;;;;8.63;5.05;;;359.10;2304.00;;;;;;5015765;28;20067;-79
2021/05/31 04:45:56;;;;;;;12.05;4.93;;;359.10;2304.00;;;;;;5033759;28;20021;-79
2021/05/31 04:48:22;;;;;;;7.70;4.88;;;359.20;2304.00;;;;;;5012973;28;20021;-79
2021/05/31 04:50:55;;;;;;;5.72;3.97;;;359.20;2304.00;;;;;;5014848;28;20075;-80
2021/05/31 04:53:24;;;;;;;7.43;4.05;;;359.10;2329.60;;;;;;5015809;28;20028;-80
2021/05/31 04:55:54;;;;;;;8.18;4.15;;;359.10;2329.60;;;;;;5015786;28;20049;-80
2021/05/31 04:58:21;;;;;;;5.22;3.10;;;359.10;2329.60;;;;;;5011075;28;20065;-79
2021/05/31 05:00:48;;;;;;;4.03;2.90;;;359.20;2304.00;;;;;;5015490;28;20464;-80
2021/05/31 05:03:13;;;;;;;7.97;3.00;;;384.10;2304.00;;;;;;5015661;28;20113;-80
2021/05/31 05:05:39;;;;;;;4.68;2.83;;;384.00;2304.00;;;;;;5037446;28;20444;-79
2021/05/31 05:08:05;;;;;;;5.65;3.00;;;384.10;2278.40;;;;;;5015486;28;20075;-80
2021/05/31 05:10:31;;;;;;;6.85;3.78;;;384.10;2304.00;;;;;;5014758;28;20072;-78
2021/05/31 05:12:57;;;;;;;8.68;3.97;;;384.00;2304.00;;;;;;5015529;28;20476;-80
2021/05/31 05:15:25;;;;;;;5.65;4.35;;;359.30;2329.60;;;;;;5015315;28;20026;-80
2021/05/31 05:17:51;;;;;;;5.57;4.35;;;359.30;2329.60;;;;;;5015386;28;20494;-79
2021/05/31 05:20:20;;;;;;;5.05;3.88;;;384.00;2329.60;;;;;;5015743;28;20032;-81
2021/05/31 05:22:46;;;;;;;6.78;3.70;;;384.00;2329.60;;;;;;5012009;28;20025;-79
2021/05/31 05:25:13;;;;;;;5.43;4.18;;;359.20;2329.60;;;;;;5014983;28;20454;-78
2021/05/31 05:27:41;;;;;;;6.70;4.25;;;359.20;2329.60;;;;;;5014709;28;20403;-79
2021/05/31 05:30:08;;;;;;;5.38;3.97;;;359.30;2329.60;;;;;;5014847;28;20041;-81
2021/05/31 05:32:36;;;;;;;6.82;4.90;;;359.30;2329.60;;;;;;5015248;28;20022;-78
2021/05/31 05:35:18;;;;;;;7.60;4.93;;;384.00;2329.60;;;;;;5015331;28;20123;-79
2021/05/31 05:38:05;;;;;;;11.00;5.15;;;384.10;2304.00;;;;;;5015144;28;20047;-81
2021/05/31 05:43:25;;;;;;;6.72;4.28;;;384.10;2304.00;;;;;;5032538;28;20072;-79
2021/05/31 05:48:36;;;;;;;5.32;3.85;;;384.40;2278.40;;;;;;5032756;28;20048;-81
2021/05/31 05:51:05;;;;;;;7.63;3.95;;;384.40;2252.80;;;;;;5032291;28;20104;-79
2021/05/31 05:53:32;;;;;;;4.57;3.47;;;384.50;2252.80;;;;;;5032627;28;20132;-81
2021/05/31 05:55:58;;;;;;;6.93;3.00;;;384.50;2252.80;;;;;;5018112;28;20386;-79
2021/05/31 05:58:29;;;;;;;6.65;3.72;;;384.60;2252.80;;;;;;5014465;28;20037;-79
2021/05/31 06:00:56;;;;;;;9.25;3.75;;;384.70;2227.20;;;;;;5021060;28;20038;-80
2021/05/31 06:03:21;;;;;;;4.47;3.17;;;384.70;2252.80;;;;;;5015533;28;20821;-78
2021/05/31 06:05:47;;;;;;;5.03;4.03;;;384.70;2227.20;;;;;;5032170;28;20534;-81
2021/05/31 06:08:13;;;;;;;6.53;3.80;;;409.60;2227.20;;;;;;5048058;28;20043;-79
2021/05/31 06:10:39;;;;;;;6.82;2.78;;;409.60;2252.80;;;;;;5014822;28;20022;-81
2021/05/31 06:13:04;;;;;;;4.43;3.08;;;409.60;2201.60;;;;;;5015420;28;20025;-79
2021/05/31 06:15:30;;;;;;;7.10;4.13;;;409.70;2227.20;;;;;;5023277;28;20040;-79
2021/05/31 06:17:56;;;;;;;13.90;4.70;;;409.70;2201.60;;;;;;5014524;28;20014;-80
2021/05/31 06:20:22;;;;;;;6.10;3.33;;;409.70;2201.60;;;;;;5015843;28;20030;-79
2021/05/31 06:22:48;;;;;;;5.70;3.05;;;409.70;2227.20;;;;;;5012475;28;20041;-81
2021/05/31 06:25:14;;;;;;;9.35;3.80;;;409.70;2201.60;;;;;;5014438;28;20021;-83
2021/05/31 06:27:39;;;;;;;6.72;3.50;;;409.70;2176.00;;;;;;5020380;28;20069;-81
2021/05/31 06:30:07;;;;;;;6.03;3.75;;;409.60;2201.60;;;;;;5025811;28;20125;-80
2021/05/31 06:32:32;;;;;;;5.07;2.92;;;384.90;2176.00;;;;;;4991266;28;20030;-80
2021/05/31 06:34:58;;;;;;;4.15;2.67;;;384.70;2201.60;;;;;;4990860;28;20031;-79
2021/05/31 06:37:24;;;;;;;5.60;2.83;;;384.70;2176.00;;;;;;4992665;28;20029;-80
2021/05/31 06:39:50;;;;;;;4.28;2.50;;;384.80;2201.60;;;;;;4992495;28;20030;-83
2021/05/31 06:42:16;;;;;;;6.85;2.88;;;384.90;2201.60;;;;;;4992930;28;20073;-81
2021/05/31 06:44:42;;;;;;;3.53;2.33;;;384.80;2201.60;;;;;;4991698;28;20022;-81
2021/05/31 06:47:08;;;;;;;5.00;2.95;;;384.70;2201.60;;;;;;4991683;28;20125;-83
2021/05/31 06:49:37;;;;;;;7.57;2.50;;;384.70;2201.60;;;;;;4991578;28;20030;-79
2021/05/31 06:52:04;;;;;;;4.93;2.83;;;384.80;2176.00;;;;;;4991248;28;20026;-80
2021/05/31 06:54:32;;;;;;;2.88;2.17;;;384.80;2176.00;;;;;;4991708;28;20049;-81
2021/05/31 06:56:59;;;;;;;3.40;2.33;;;384.80;2176.00;;;;;;4992784;28;20068;-81
2021/05/31 06:59:25;;;;;;;4.82;2.47;;;384.90;2150.40;;;;;;4992808;28;20029;-85
2021/05/31 07:01:51;;;;;;;4.80;2.40;;;384.80;2176.00;;;;;;4991548;28;20037;-80
2021/05/31 07:04:18;;;;;;;5.07;2.95;;;384.90;2124.80;;;;;;4991851;28;20026;-83
2021/05/31 07:06:45;;;;;;;7.25;2.45;;;409.60;2150.40;;;;;;4980825;28;20030;-79
2021/05/31 07:09:11;;;;;;;3.42;2.50;;;384.80;2150.40;;;;;;4991624;28;20481;-81
2021/05/31 07:11:41;;;;;;;13.27;2.75;;;384.90;2124.80;;;;;;4992940;28;20538;-82
2021/05/31 07:14:10;;;;;;;8.23;2.50;;;384.80;2176.00;;;;;;4992750;28;20030;-84
2021/05/31 07:16:36;;;;;;;8.18;3.00;;;384.90;2150.40;;;;;;4995946;28;20085;-84
2021/05/31 07:19:02;;;;;;;7.57;2.63;;;409.60;2150.40;;;;;;5008326;28;20078;-81
2021/05/31 07:21:28;;;;;;;8.02;2.40;;;409.60;2150.40;;;;;;5018270;28;20050;-84
2021/05/31 07:23:54;;;;;;;3.35;2.20;;;409.60;2124.80;;;;;;5008375;28;20069;-87
2021/05/31 07:26:19;;;;;;;8.40;2.28;;;409.70;2124.80;;;;;;4995875;28;21388;-79
2021/05/31 07:28:45;;;;;;;3.75;2.38;;;409.70;2150.40;;;;;;4991426;28;20592;-79
2021/05/31 07:31:11;;;;;;;3.83;2.70;;;410.10;2124.80;;;;;;4995907;28;20034;-80
2021/05/31 07:33:36;;;;;;;5.20;2.10;;;410.30;2099.20;;;;;;4998250;28;20022;-80
2021/05/31 07:36:02;;;;;;;6.65;2.30;;;435.20;2048.00;;;;;;4994952;28;20041;-78
2021/05/31 07:38:28;;;;;;;4.57;2.22;;;435.20;2022.40;;;;;;4994372;28;20022;-83
2021/05/31 07:40:54;;;;;;;7.00;2.50;;;435.30;2048.00;;;;;;4994734;28;20031;-81
2021/05/31 07:43:20;;;;;;;6.32;2.70;;;435.30;2073.60;;;;;;4994562;28;20026;-83
2021/05/31 07:45:47;;;;;;;4.97;2.40;;;435.20;2022.40;;;;;;4995949;28;20022;-81
2021/05/31 07:48:13;;;;;;;6.30;2.25;;;435.20;2048.00;;;;;;4994395;28;20050;-81
2021/05/31 07:50:39;;;;;;;5.10;2.75;;;435.20;2073.60;;;;;;4995958;28;20026;-81
2021/05/31 07:53:05;;;;;;;5.10;2.63;;;435.20;2048.00;;;;;;4994234;28;20472;-80
2021/05/31 07:55:31;;;;;;;8.98;2.70;;;435.20;2022.40;;;;;;4995368;28;20026;-80
2021/05/31 07:57:56;;;;;;;8.15;3.10;;;410.50;2048.00;;;;;;4994622;28;20085;-80
2021/05/31 08:00:24;;;;;;;10.35;2.97;;;410.30;2073.60;;;;;;4994093;28;20336;-81
2021/05/31 08:02:51;;;;;;;4.35;2.97;;;410.20;2124.80;;;;;;4994176;28;20116;-81
2021/05/31 08:05:18;;;;;;;6.03;4.00;;;410.00;2227.20;;;;;;4994132;28;20018;-81
2021/05/31 08:07:45;;;;;;;14.45;4.70;;;409.80;2278.40;;;;;;4994402;28;20050;-81
2021/05/31 08:10:12;;;;;;;7.88;4.43;;;409.60;2355.20;;;;;;4994353;28;20027;-82
2021/05/31 08:12:38;;;;;;;7.50;4.32;;;409.60;2355.20;;;;;;4992455;28;20023;-81
2021/05/31 08:15:06;;;;;;;9.75;6.00;;;409.60;2355.20;;;;;;4990803;28;20076;-81
2021/05/31 08:17:32;;;;;;;9.50;6.30;;;384.80;2329.60;;;;;;4992494;28;20029;-80
2021/05/31 08:19:58;;;;;;;6.40;4.53;;;384.70;2329.60;;;;;;4993521;28;20144;-81
2021/05/31 08:22:24;;;;;;;13.25;4.93;;;384.50;2329.60;;;;;;4993566;28;20049;-81
2021/05/31 08:24:50;;;;;;;6.93;4.55;;;384.20;2329.60;;;;;;4993604;28;20034;-82
2021/05/31 08:27:16;;;;;;;7.90;4.50;;;384.20;2329.60;;;;;;4993506;28;20061;-82
2021/05/31 08:29:41;;;;;;;8.25;4.38;;;359.30;2329.60;;;;;;4993516;28;20480;-81
2021/05/31 08:32:08;;;;;;;9.75;4.28;;;359.10;2329.60;;;;;;4994580;28;20022;-84
2021/05/31 08:34:34;;;;;;;5.78;3.88;;;359.00;2329.60;;;;;;4993836;28;20030;-82
2021/05/31 08:37:00;;;;;;;6.68;4.97;;;359.00;2329.60;;;;;;4993928;28;20054;-82
2021/05/31 08:39:26;;;;;;;8.25;4.95;;;358.90;2329.60;;;;;;4993944;28;20023;-82
2021/05/31 08:41:52;;;;;;;7.43;4.53;;;359.00;2329.60;;;;;;4994046;28;20030;-83
2021/05/31 08:44:18;;;;;;;6.60;4.30;;;359.10;2329.60;;;;;;4994150;28;20092;-86
2021/05/31 08:46:44;;;;;;;5.30;4.10;;;359.10;2329.60;;;;;;4994010;28;20032;-85
2021/05/31 08:49:10;;;;;;;7.38;4.88;;;359.10;2329.60;;;;;;4993730;28;20023;-85
2021/05/31 08:51:38;;;;;;;9.73;4.28;;;359.00;2329.60;;;;;;4993874;28;20047;-88
2021/05/31 08:54:05;;;;;;;5.50;3.97;;;359.30;2329.60;;;;;;4994575;28;20492;-86
2021/05/31 08:56:31;;;;;;;5.30;4.10;;;359.20;2329.60;;;;;;4993809;28;20030;-85
2021/05/31 08:58:57;;;;;;;5.45;4.45;;;359.30;2329.60;;;;;;4992596;28;20077;-85
2021/05/31 09:01:24;;;;;;;6.43;4.85;;;384.20;2329.60;;;;;;4991500;28;20038;-85
2021/05/31 09:03:52;;;;;;;5.63;4.45;;;384.30;2329.60;;;;;;4990221;28;20014;-85
2021/05/31 09:06:18;;;;;;;6.40;4.70;;;384.20;2329.60;;;;;;4992991;28;20149;-85
2021/05/31 09:08:58;;;;;;;8.55;5.00;;;384.20;2329.60;;;;;;4992811;28;20038;-85
2021/05/31 09:11:26;;;;;;;6.00;3.33;;;384.10;2329.60;;;;;;4992989;28;20018;-85
2021/05/31 09:13:52;;;;;;;5.07;3.33;;;384.20;2329.60;;;;;;4992812;28;20097;-86
2021/05/31 09:16:22;;;;;;;6.38;3.70;;;384.10;2329.60;;;;;;4989460;28;20110;-85
2021/05/31 09:18:54;;;;;;;4.82;3.45;;;384.20;2329.60;;;;;;4992875;28;20113;-85
2021/05/31 09:21:31;;;;;;;5.78;2.83;;;384.10;2329.60;;;;;;4990623;28;20030;-86
2021/05/31 09:24:03;;;;;;;5.57;3.33;;;384.00;2329.60;;;;;;4993677;28;20030;-85
2021/05/31 09:26:30;;;;;;;4.88;3.13;;;384.20;2329.60;;;;;;4991711;28;20485;-85
2021/05/31 09:29:04;;;;;;;4.38;2.58;;;384.10;2329.60;;;;;;4992854;28;20120;-84
2021/05/31 09:31:31;;;;;;;4.75;3.65;;;384.20;2329.60;;;;;;4992750;28;20034;-83
2021/05/31 09:34:02;;;;;;;4.78;3.17;;;384.10;2329.60;;;;;;4992948;28;20501;-83
2021/05/31 09:36:30;;;;;;;4.63;3.00;;;384.40;2329.60;;;;;;4993076;28;20026;-83
2021/05/31 09:38:58;;;;;;;5.10;3.42;;;384.40;2329.60;;;;;;4976744;28;20503;-82
2021/05/31 09:41:32;;;;;;;5.28;3.38;;;384.30;2329.60;;;;;;4992700;28;20435;-83
2021/05/31 09:44:02;;;;;;;5.32;4.20;;;384.40;2329.60;;;;;;4992537;28;20030;-84
2021/05/31 09:46:45;;;;;;;4.97;3.92;;;384.50;2329.60;;;;;;4992648;28;20117;-85
2021/05/31 09:49:13;;;;;;;6.35;4.40;;;384.70;2329.60;;;;;;4990160;28;20035;-83
2021/05/31 09:52:06;;;;;;;6.13;4.68;;;384.70;2329.60;;;;;;4992858;28;20022;-85
2021/05/31 09:54:38;;;;;;;6.05;4.93;;;409.60;2355.20;;;;;;4990113;28;20018;-84
2021/05/31 09:57:28;;;;;;;6.03;4.65;;;409.60;2355.20;;;;;;4992729;28;20487;-82
2021/05/31 10:00:04;;;;;;;7.90;4.97;;;384.90;2329.60;;;;;;4989920;28;20105;-83
2021/05/31 10:08:40;;;;;;;15.85;4.20;;;359.20;2329.60;;;;;;4993401;28;20026;-86
2021/05/31 10:11:05;;;;;;;7.78;4.18;;;359.20;2329.60;;;;;;4993887;28;20057;-80
2021/05/31 10:13:31;;;;;;;6.95;4.20;;;359.20;2329.60;;;;;;4992318;28;20030;-82
2021/05/31 10:16:00;;;;;;;6.50;3.95;;;359.30;2329.60;;;;;;4992837;28;20033;-81
2021/05/31 10:18:30;;;;;;;6.95;4.57;;;384.10;2329.60;;;;;;4992458;28;20026;-82
2021/05/31 10:20:57;;;;;;;7.40;5.55;;;384.00;2329.60;;;;;;4993331;28;20096;-85
2021/05/31 10:23:24;;;;;;;8.93;5.78;;;384.10;2329.60;;;;;;4992441;28;20356;-81
2021/05/31 10:25:56;;;;;;;10.93;6.82;;;384.10;2329.60;;;;;;4992607;28;20100;-86
2021/05/31 10:28:36;;;;;;;21.52;6.40;;;384.10;2329.60;;;;;;4992749;28;20034;-85
2021/05/31 10:31:04;;;;;;;8.60;6.03;;;384.30;2329.60;;;;;;4998593;28;20062;-87
2021/05/31 10:33:30;;;;;;;6.18;4.35;;;384.60;2329.60;;;;;;4992545;28;20027;-88
2021/05/31 10:36:14;;;;;;;4.22;2.95;;;384.60;2329.60;;;;;;4994922;28;20077;-87
2021/05/31 10:38:40;;;;;;;4.68;3.10;;;384.80;2329.60;;;;;;4993336;28;20035;-86
2021/05/31 10:41:23;;;;;;;4.13;2.53;;;384.70;2329.60;;;;;;4992854;28;20030;-87
2021/05/31 10:43:51;;;;;;;4.30;2.30;;;384.80;2329.60;;;;;;4993467;28;20399;-87
2021/05/31 10:46:20;;;;;;;3.58;2.30;;;409.60;2355.20;;;;;;4993050;28;20057;-87
2021/05/31 10:48:51;;;;;;;4.45;2.20;;;409.80;2355.20;;;;;;4991759;28;20054;-83
2021/05/31 10:51:23;;;;;;;3.60;2.20;;;409.90;2355.20;;;;;;4993049;28;20030;-82
2021/05/31 10:53:49;;;;;;;4.05;1.95;;;410.20;2355.20;;;;;;4996387;28;20022;-82
2021/05/31 10:56:18;;;;;;;5.47;1.95;;;410.50;2355.20;;;;;;4995846;28;20026;-81
2021/05/31 10:58:49;;;;;;;3.08;1.90;;;410.20;2355.20;;;;;;5012167;28;20026;-80
2021/05/31 11:01:21;;;;;;;4.80;1.73;;;410.00;2355.20;;;;;;5017556;28;20034;-81
2021/05/31 11:03:52;;;;;;;3.20;1.80;;;409.80;2355.20;;;;;;4998527;28;20377;-83
2021/05/31 11:06:21;;;;;;;2.80;1.90;;;410.30;2355.20;;;;;;4995803;28;20404;-81
2021/05/31 11:09:07;;;;;;;2.65;1.48;;;435.20;2355.20;;;;;;4995465;28;20383;-82
2021/05/31 11:11:40;;;;;;;5.47;1.70;;;435.60;2329.60;;;;;;4994983;28;20034;-83
2021/05/31 11:14:06;;;;;;;2.13;1.35;;;435.90;2252.80;;;;;;4994971;28;20488;-82
2021/05/31 11:16:51;;;;;;;1.55;1.02;;;435.90;2304.00;;;;;;4995419;28;20018;-81
2021/05/31 11:19:16;;;;;;;2.15;1.42;;;436.10;2252.80;;;;;;4992977;28;20037;-82
2021/05/31 11:21:45;;;;;;;3.40;2.00;;;461.20;2278.40;;;;;;4996366;28;20027;-82
2021/05/31 11:24:14;;;;;;;2.80;1.80;;;461.30;2201.60;;;;;;4995368;28;20432;-82
2021/05/31 11:26:43;;;;;;;4.65;1.80;;;461.20;2252.80;;;;;;4995288;28;20073;-83
2021/05/31 11:29:11;;;;;;;2.63;1.70;;;461.20;2201.60;;;;;;5016755;28;20049;-84
2021/05/31 11:31:39;;;;;;;3.13;1.90;;;461.40;2099.20;;;;;;5001447;28;20022;-83
2021/05/31 11:34:06;;;;;;;2.88;1.50;;;461.00;2252.80;;;;;;5016028;28;20470;-83
2021/05/31 11:36:39;;;;;;;4.10;1.50;;;460.90;2176.00;;;;;;5015917;28;20396;-83
2021/05/31 11:39:08;;;;;;;2.70;1.35;;;461.20;2099.20;;;;;;5015495;28;20022;-82
2021/05/31 11:41:45;;;;;;;2.42;1.63;;;461.60;2048.00;;;;;;5015632;28;20395;-84
2021/05/31 11:44:33;;;;;;;2.45;1.63;;;461.70;2073.60;;;;;;5027698;28;20478;-84
2021/05/31 11:47:01;;;;;;;2.10;1.52;;;486.70;2022.40;;;;;;5014663;28;20101;-83
2021/05/31 11:49:28;;;;;;;4.38;1.70;;;486.80;1920.00;;;;;;5015205;28;20030;-84
2021/05/31 11:52:05;;;;;;;1.83;1.20;;;487.10;1868.80;;;;;;5014613;28;20033;-81
2021/05/31 11:54:35;;;;;;;2.22;1.70;;;487.00;1868.80;;;;;;5037696;28;20030;-85
2021/05/31 11:57:04;;;;;;;2.72;1.77;;;486.70;1945.60;;;;;;5015060;28;20487;-81
2021/05/31 11:59:39;;;;;;;4.10;1.85;;;486.90;1920.00;;;;;;5021637;28;20480;-81
2021/05/31 12:02:08;;;;;;;4.60;1.98;;;487.00;1843.20;;;;;;5011694;28;20135;-82
2021/05/31 12:04:36;;;;;;;6.28;2.05;;;486.50;1971.20;;;;;;5014302;28;20446;-81
2021/05/31 12:07:07;;;;;;;3.60;2.38;;;461.70;1996.80;;;;;;5014671;28;20045;-81
2021/05/31 12:09:36;;;;;;;4.25;2.83;;;461.50;1996.80;;;;;;5017241;28;20050;-82
2021/05/31 12:12:03;;;;;;;2.47;1.58;;;461.60;1971.20;;;;;;5011733;28;20018;-84
2021/05/31 12:14:29;;;;;;;2.40;1.70;;;486.60;1945.60;;;;;;5014480;28;20041;-83
2021/05/31 12:16:59;;;;;;;5.10;1.90;;;487.00;1996.80;;;;;;5014420;28;20383;-82
2021/05/31 12:19:26;;;;;;;3.60;2.00;;;486.70;1920.00;;;;;;5012355;28;20416;-81
2021/05/31 12:22:01;;;;;;;3.33;2.28;;;486.40;1971.20;;;;;;5014825;28;20126;-83
2021/05/31 12:24:40;;;;;;;6.80;2.20;;;461.50;1996.80;;;;;;5016103;28;20065;-82
2021/05/31 12:27:07;;;;;;;3.10;2.10;;;461.40;1945.60;;;;;;5013557;28;20021;-85
2021/05/31 12:29:38;;;;;;;8.02;2.00;;;461.40;1945.60;;;;;;5000019;28;20116;-81
2021/05/31 12:32:13;;;;;;;4.00;2.15;;;461.20;2048.00;;;;;;4994246;28;20069;-81
2021/05/31 12:34:40;;;;;;;3.63;2.28;;;460.90;2150.40;;;;;;4993763;28;20041;-84
2021/05/31 12:37:08;;;;;;;5.90;2.33;;;436.10;2150.40;;;;;;4994055;28;20069;-83
2021/05/31 12:39:35;;;;;;;3.90;2.60;;;435.90;2150.40;;;;;;4994192;28;20034;-83